createdAt,value
2017-11-21T00:00:19.933Z,7.77
2017-11-21T00:02:46.489Z,9.00
2017-11-21T00:05:14.630Z,7.00
2017-11-21T00:07:42.108Z,5.70
2017-11-21T00:10:09.124Z,5.03
2017-11-21T00:12:35.714Z,4.77
2017-11-21T00:15:01.985Z,4.67
2017-11-21T00:17:30.307Z,5.13
2017-11-21T00:19:58.737Z,5.83
2017-11-21T00:22:29.719Z,5.97
2017-11-21T00:24:55.947Z,4.60
2017-11-21T00:27:27.504Z,3.83
2017-11-21T00:29:53.847Z,5.00
2017-11-21T00:32:20.192Z,3.70
2017-11-21T00:34:46.585Z,6.23
2017-11-21T00:37:14.725Z,2.80
2017-11-21T00:39:43.008Z,2.40
2017-11-21T00:42:09.256Z,3.20
2017-11-21T00:44:35.536Z,3.17
2017-11-21T00:47:22.494Z,3.10
2017-11-21T00:49:55.120Z,3.10
2017-11-21T00:52:22.493Z,3.53
2017-11-21T00:54:48.785Z,2.90
2017-11-21T00:57:15.048Z,3.23
2017-11-21T00:59:41.353Z,3.23
2017-11-21T01:02:09.454Z,3.20
2017-11-21T01:04:37.339Z,3.30
2017-11-21T01:07:08.850Z,3.47
2017-11-21T01:09:52.115Z,3.27
2017-11-21T01:12:19.506Z,3.80
2017-11-21T01:15:22.945Z,3.30
2017-11-21T01:17:50.402Z,3.23
2017-11-21T01:20:16.713Z,3.80
2017-11-21T01:22:42.925Z,3.33
2017-11-21T01:25:09.182Z,4.10
2017-11-21T01:27:35.484Z,4.10
2017-11-21T01:30:09.111Z,3.50
2017-11-21T01:32:36.851Z,3.30
2017-11-21T01:35:03.773Z,3.57
2017-11-21T01:37:30.002Z,4.30
2017-11-21T01:39:56.304Z,3.60
2017-11-21T01:42:22.505Z,4.20
2017-11-21T01:44:50.399Z,3.63
2017-11-21T01:47:16.628Z,3.70
2017-11-21T01:49:42.877Z,3.30
2017-11-21T01:52:09.207Z,3.00
2017-11-21T11:22:13.920Z,5.67
2017-11-21T11:24:40.220Z,6.90
2017-11-21T11:27:07.240Z,9.10
2017-11-21T11:29:36.037Z,7.93
2017-11-21T11:32:02.423Z,7.80
2017-11-21T11:34:28.744Z,5.67
2017-11-21T11:36:56.032Z,11.37
2017-11-21T11:39:23.329Z,21.17
2017-11-21T11:41:50.105Z,6.07
2017-11-21T11:44:16.354Z,8.97
2017-11-21T11:46:46.876Z,7.17
2017-11-21T11:49:13.891Z,9.13
2017-11-21T11:51:42.893Z,7.03
2017-11-21T11:54:09.931Z,12.03
2017-11-21T11:56:36.283Z,9.60
2017-11-21T11:59:04.320Z,31.37
2017-11-21T12:01:30.712Z,9.13
2017-11-21T12:03:56.968Z,6.50
2017-11-21T12:06:23.229Z,7.90
2017-11-21T12:08:50.590Z,13.63
2017-11-21T12:11:16.836Z,12.00
2017-11-21T12:13:43.082Z,11.73
2017-11-21T12:16:09.398Z,7.90
2017-11-21T12:18:37.001Z,10.53
2017-11-21T12:21:05.214Z,15.53
2017-11-21T12:23:33.755Z,20.80
2017-11-21T12:26:00.028Z,19.53
2017-11-21T12:28:26.386Z,13.77
2017-11-21T12:30:52.665Z,33.53
2017-11-21T12:33:18.960Z,11.47
2017-11-21T12:35:46.674Z,15.70
2017-11-21T12:38:13.029Z,20.40
2017-11-21T12:40:40.488Z,13.67
2017-11-21T12:43:08.755Z,16.30
2017-11-21T12:45:35.073Z,13.90
2017-11-21T12:48:01.382Z,13.57
2017-11-21T12:50:28.386Z,17.73
2017-11-21T12:52:55.123Z,17.43
2017-11-21T12:55:21.399Z,15.77
2017-11-21T12:57:47.700Z,20.80
2017-11-21T13:00:15.491Z,17.90
2017-11-21T13:02:42.872Z,19.10
2017-11-21T13:05:11.160Z,19.53
2017-11-21T13:07:37.424Z,20.17
2017-11-21T13:10:03.676Z,16.67
2017-11-21T13:12:30.030Z,16.57
2017-11-21T13:14:56.378Z,19.03
2017-11-21T13:17:22.702Z,19.43
2017-11-21T13:19:48.958Z,16.90
2017-11-21T13:22:15.266Z,21.77
2017-11-21T13:24:41.596Z,16.43
2017-11-21T13:27:07.994Z,19.10
2017-11-21T13:29:35.886Z,19.30
2017-11-21T13:32:02.905Z,22.23
2017-11-21T13:34:30.563Z,20.73
2017-11-21T13:36:58.635Z,19.90
2017-11-21T13:39:26.569Z,18.07
2017-11-21T13:41:54.734Z,18.70
2017-11-21T13:44:21.766Z,20.80
2017-11-21T13:46:48.295Z,19.73
2017-11-21T13:49:14.550Z,17.37
2017-11-21T13:51:42.298Z,23.43
2017-11-21T13:54:08.624Z,18.60
2017-11-21T13:56:36.310Z,16.17
2017-11-21T13:59:04.565Z,15.83
2017-11-21T14:01:32.157Z,16.27
2017-11-21T14:04:00.418Z,17.77
2017-11-21T14:06:28.705Z,16.50
2017-11-21T14:08:55.078Z,18.20
2017-11-21T14:11:21.509Z,15.93
2017-11-21T14:13:47.759Z,12.90
2017-11-21T14:16:15.466Z,16.27
2017-11-21T14:18:41.744Z,14.07
2017-11-21T14:21:07.980Z,11.40
2017-11-21T14:23:35.102Z,20.60
2017-11-21T14:26:03.219Z,12.03
2017-11-21T14:31:00.457Z,11.50
2017-11-21T14:33:27.468Z,11.83
2017-11-21T14:35:53.759Z,12.40
2017-11-21T14:38:20.011Z,20.77
2017-11-21T14:40:48.398Z,15.17
2017-11-21T14:43:15.706Z,19.43
2017-11-21T14:45:42.071Z,15.30
2017-11-21T14:48:08.330Z,15.23
2017-11-21T14:50:34.611Z,22.10
2017-11-21T14:53:01.404Z,17.70
2017-11-21T14:55:29.827Z,16.43
2017-11-21T14:57:58.018Z,17.87
2017-11-21T15:00:24.356Z,21.00
2017-11-21T15:02:50.692Z,21.60
2017-11-21T15:05:16.994Z,30.37
2017-11-21T15:07:44.711Z,22.00
2017-11-21T15:10:11.026Z,30.07
2017-11-21T15:12:37.313Z,20.77
2017-11-21T15:15:04.790Z,25.57
2017-11-21T15:17:31.050Z,24.10
2017-11-21T15:19:57.424Z,24.90
2017-11-21T15:22:24.931Z,35.57
2017-11-21T15:24:53.274Z,28.47
2017-11-21T15:27:21.556Z,26.30
2017-11-21T15:29:47.938Z,28.67
2017-11-21T15:32:15.341Z,26.07
2017-11-21T15:34:43.235Z,24.17
2017-11-21T15:37:09.507Z,27.07
2017-11-21T15:39:36.345Z,27.33
2017-11-21T15:42:05.626Z,27.23
2017-11-21T15:44:32.347Z,30.40
2017-11-21T15:46:58.788Z,24.63
2017-11-21T15:49:26.346Z,33.73
2017-11-21T15:51:54.634Z,28.10
2017-11-21T15:54:23.027Z,32.80
2017-11-21T15:56:51.303Z,33.70
2017-11-21T15:59:17.598Z,22.97
2017-11-21T16:01:45.458Z,25.03
2017-11-21T16:04:11.794Z,32.43
2017-11-21T16:06:38.147Z,30.00
2017-11-21T16:09:05.283Z,28.30
2017-11-21T16:11:33.722Z,23.60
2017-11-21T16:14:00.494Z,31.00
2017-11-21T16:16:29.222Z,26.73
2017-11-21T16:18:58.208Z,36.60
2017-11-21T16:21:24.522Z,32.57
2017-11-21T16:23:53.070Z,35.10
2017-11-21T16:26:21.234Z,33.20
2017-11-21T16:28:48.294Z,27.07
2017-11-21T16:31:15.977Z,25.13
2017-11-21T16:33:42.472Z,37.23
2017-11-21T16:36:10.545Z,27.77
2017-11-21T16:38:36.909Z,29.93
2017-11-21T16:41:03.183Z,30.23
2017-11-21T16:43:29.463Z,27.93
2017-11-21T16:45:56.502Z,24.70
2017-11-21T16:48:22.866Z,32.10
2017-11-21T16:50:50.591Z,26.60
2017-11-21T16:53:17.023Z,25.33
2017-11-21T16:55:43.364Z,30.10
2017-11-21T16:58:09.717Z,30.77
2017-11-21T17:00:37.322Z,25.60
2017-11-21T17:03:07.488Z,26.47
2017-11-21T17:05:34.983Z,25.07
2017-11-21T17:08:01.461Z,26.53
2017-11-21T17:10:28.147Z,27.20
2017-11-21T17:12:54.477Z,24.17
2017-11-21T17:15:22.894Z,30.93
2017-11-21T17:17:49.150Z,25.93
2017-11-21T17:20:15.478Z,30.30
2017-11-21T17:22:41.726Z,20.93
2017-11-21T17:25:08.090Z,30.63
2017-11-21T17:27:35.902Z,26.73
2017-11-21T17:30:02.322Z,22.50
2017-11-21T17:32:28.588Z,24.43
2017-11-21T17:34:55.098Z,24.20
2017-11-21T17:37:22.695Z,30.47
2017-11-21T17:39:48.955Z,97.23
2017-11-21T17:42:17.405Z,24.53
2017-11-21T17:44:46.893Z,21.77
2017-11-21T17:47:15.017Z,27.93
2017-11-21T17:49:41.303Z,29.73
2017-11-21T17:52:07.630Z,24.37
2017-11-21T17:54:35.194Z,22.80
2017-11-21T17:57:01.468Z,25.07
2017-11-21T17:59:28.874Z,22.63
2017-11-21T18:01:57.131Z,25.13
2017-11-21T18:04:23.522Z,27.40
2017-11-21T18:06:52.703Z,25.43
2017-11-21T18:09:20.325Z,25.33
2017-11-21T18:11:47.795Z,32.97
2017-11-21T18:14:14.983Z,24.37
2017-11-21T18:16:41.314Z,34.03
2017-11-21T18:19:09.549Z,40.67
2017-11-21T18:21:37.910Z,23.20
2017-11-21T18:24:06.147Z,32.10
2017-11-21T18:26:32.487Z,60.53
2017-11-21T18:29:00.744Z,62.20
2017-11-21T18:31:27.066Z,24.50
2017-11-21T18:33:53.606Z,65.77
2017-11-21T18:36:19.880Z,26.60
2017-11-21T18:38:47.397Z,26.30
2017-11-21T18:41:15.613Z,24.73
2017-11-21T18:43:41.911Z,26.63
2017-11-21T18:46:08.467Z,24.23
2017-11-21T18:48:36.774Z,29.40
2017-11-21T18:51:05.196Z,29.63
2017-11-21T18:53:33.491Z,25.33
2017-11-21T18:55:59.797Z,23.17
2017-11-21T18:58:26.314Z,27.50
2017-11-21T19:00:56.581Z,31.77
2017-11-21T19:03:22.879Z,29.50
2017-11-21T19:05:50.932Z,32.23
2017-11-21T19:08:17.166Z,26.77
2017-11-21T19:10:45.380Z,24.67
2017-11-21T19:13:12.641Z,35.20
2017-11-21T19:15:40.205Z,24.63
2017-11-21T19:18:07.270Z,23.70
2017-11-21T19:20:34.078Z,27.73
2017-11-21T19:23:04.206Z,24.80
2017-11-21T19:25:30.436Z,21.40
2017-11-21T19:27:56.775Z,27.83
2017-11-21T19:30:24.476Z,25.00
2017-11-21T19:32:50.815Z,19.87
2017-11-21T19:35:19.000Z,25.07
2017-11-21T19:37:47.177Z,38.97
2017-11-21T19:40:13.524Z,21.27
2017-11-21T19:42:41.101Z,22.20
2017-11-21T19:45:08.463Z,18.63
2017-11-21T19:47:35.984Z,21.63
2017-11-21T19:50:06.080Z,19.17
2017-11-21T19:52:34.798Z,29.33
2017-11-21T19:55:05.036Z,21.27
2017-11-21T19:57:31.460Z,26.30
2017-11-21T19:59:57.796Z,25.47
2017-11-21T20:02:24.444Z,26.40
2017-11-21T20:04:53.429Z,24.50
2017-11-21T20:07:20.222Z,20.73
2017-11-21T20:09:46.501Z,24.93
2017-11-21T20:12:12.702Z,20.83
2017-11-21T20:14:41.189Z,20.87
2017-11-21T20:17:07.564Z,25.27
2017-11-21T20:19:33.933Z,24.00
2017-11-21T20:22:00.319Z,21.60
2017-11-21T20:24:27.335Z,25.10
2017-11-21T20:26:57.136Z,26.20
2017-11-21T20:29:23.368Z,32.40
2017-11-21T20:31:50.787Z,22.80
2017-11-21T20:34:19.231Z,19.77
2017-11-21T20:36:45.567Z,27.23
2017-11-21T20:39:13.869Z,21.10
2017-11-21T20:41:42.075Z,18.60
2017-11-21T20:44:09.714Z,16.87
2017-11-21T20:46:37.264Z,17.90
2017-11-21T20:49:03.577Z,24.10
2017-11-21T20:51:29.858Z,24.30
2017-11-21T20:53:56.452Z,23.50
2017-11-21T20:56:27.110Z,19.40
2017-11-21T20:58:53.325Z,24.83
2017-11-21T21:01:21.256Z,22.07
2017-11-21T21:03:48.309Z,39.43
2017-11-21T21:06:15.984Z,38.87
2017-11-21T21:08:42.401Z,17.40
2017-11-21T21:11:10.439Z,14.80
2017-11-21T21:13:38.887Z,15.67
2017-11-21T21:16:05.607Z,18.23
2017-11-21T21:18:32.054Z,16.73
2017-11-21T21:21:04.789Z,15.37
2017-11-21T21:26:22.867Z,16.97
2017-11-21T21:28:50.442Z,14.97
2017-11-21T21:31:16.724Z,22.73
2017-11-21T21:33:43.011Z,21.30
2017-11-21T21:36:09.613Z,19.20
2017-11-21T21:38:37.813Z,17.83
2017-11-21T21:41:04.153Z,16.80
2017-11-21T21:43:30.421Z,17.73
2017-11-21T21:45:56.742Z,16.50
2017-11-21T21:48:23.282Z,22.03
2017-11-21T21:50:54.400Z,22.40
2017-11-21T21:53:20.962Z,19.83
2017-11-21T21:55:49.216Z,20.83
2017-11-21T21:58:18.998Z,18.80
2017-11-21T22:00:45.327Z,20.70
2017-11-21T22:03:16.139Z,29.40
2017-11-21T22:05:44.478Z,28.17
2017-11-21T22:08:12.730Z,18.13
2017-11-21T22:10:39.183Z,20.60
2017-11-21T22:13:05.415Z,18.37
2017-11-21T22:15:31.819Z,24.20
2017-11-21T22:17:58.170Z,18.00
2017-11-21T22:20:24.442Z,21.00
2017-11-21T22:22:50.862Z,24.50
2017-11-21T22:25:17.130Z,16.47
2017-11-21T22:27:43.339Z,19.17
2017-11-21T22:30:11.456Z,19.10
2017-11-21T22:32:38.834Z,17.77
2017-11-21T22:35:05.401Z,15.40
2017-11-21T22:37:33.715Z,25.70
2017-11-21T22:40:00.014Z,21.33
2017-11-21T22:42:26.354Z,16.77
2017-11-21T22:44:52.591Z,17.63
2017-11-21T22:47:18.894Z,17.80
2017-11-21T22:49:47.129Z,17.67
2017-11-21T22:52:13.404Z,15.97
2017-11-21T22:54:39.843Z,15.90
2017-11-21T22:57:06.829Z,21.10
2017-11-21T22:59:33.097Z,16.40
2017-11-21T23:02:00.536Z,31.37
2017-11-21T23:04:26.803Z,17.30
2017-11-21T23:06:53.159Z,19.40
2017-11-21T23:09:20.688Z,16.00
2017-11-21T23:11:47.962Z,18.37
2017-11-21T23:14:14.257Z,16.97
2017-11-21T23:16:41.326Z,17.90
2017-11-21T23:19:09.145Z,19.00
2017-11-21T23:21:36.114Z,17.37
2017-11-21T23:24:02.631Z,17.30
2017-11-21T23:26:28.878Z,17.77
2017-11-21T23:28:56.196Z,17.50
2017-11-21T23:31:23.782Z,15.27
2017-11-21T23:33:50.125Z,18.63
2017-11-21T23:36:16.367Z,20.87
2017-11-21T23:38:44.381Z,21.63
2017-11-21T23:41:12.599Z,24.63
2017-11-21T23:43:40.084Z,19.20
2017-11-21T23:46:06.396Z,21.80
2017-11-21T23:48:35.265Z,16.83
2017-11-21T23:51:02.323Z,22.70
2017-11-21T23:53:28.653Z,16.37
2017-11-21T23:55:54.868Z,16.50
2017-11-21T23:58:21.153Z,21.37
